Cumana, Venezuela

10:54 AM VET on July 13, 2014 (GMT -0430)
Mariscal Antonio Jose De Sucre (SVCU) Elev 23 ft | 10.45 °N, 64.13 °W | Change Station

Current weather conditions updated 24 minutes ago

Mostly Cloudy
Mostly Cloudy
82 °F
Feels Like 90 °F
N
18
Wind Variable Wind from ENE

Today is forecast to be Cooler than yesterday.

Today
High -- | Low -- °F
--% Chance of Precip.
Yesterday
High -- | Low -- °F
Precip. -- in
5:31 AM 6:12 PM
Full, 98% visible
Pressure 30.01 in
Visibility 6.2 miles
Clouds Mostly Cloudy 1300 ft
Heat Index 90 °F
Dew Point 75 °F
Humidity 79%
Rainfall 0.00 in
Snow Depth Not available.
UV 6 out of 12
Pollen Not available.
Air Quality Not available.
Flu Activity Not available.
METAR SVCU 131500Z 07016KT 9999 BKN013 28/24 Q1016

More Conditions Fewer Conditions

Pressure 30.01 in
Visibility 6.2 miles
Clouds Mostly Cloudy 1300 ft
Heat Index 90 °F
Dew Point 75 °F
Humidity 79%
Rainfall 0.00 in
Snow Depth Not available.
UV 6 out of 12
Pollen Not available.
Air Quality Not available.
Flu Activity Not available.
METAR SVCU 131500Z 07016KT 9999 BKN013 28/24 Q1016

More Conditions Fewer Conditions

10-Day Weather Forecast

Almanac

Astronomy

Jul. 13, 2014 Rise Set
Actual Time 5:31 AM VET 6:12 PM VET
Civil Twilight 5:08 AM VET 6:35 PM VET
Nautical Twilight 4:42 AM VET 7:02 PM VET
Astronomical Twilight 4:14 AM VET 7:29 PM VET
Moon 7:26 PM VET 6:34 AM VET
Length of Visible Light 13h 26m
Length of Day
12h 41m
Tomorrow will be 0m 17s shorter.
Full, 98% of the Moon is Illuminated
Today
Full
Jul 18
Last Quarter
Jul 26
New
Aug 3
First Quarter
Aug 10
Full

Today's Extremes

Country Highs Country Lows

Community

WunderPhotos

Upload Photos

1,733,254 photos uploaded!

Nearby

Snow Depth

Not available.

Earthquake Activity

City Distance Mag. Time & Date
No recent earthquake activity has been reported nearby.
Minimum magnitude displayed is 2.5.

Coastal Water Temperatures

Place Temperature
No Stations Reporting

Nearby Weather Stations

There are no personal weather stations in this area.